NERRS METEOROLOGICAL SITE AT WAQUOIT BA HADS current weather conditions

sailwx.info

Wind from 310 at 3 knots

Air temperature 10.8° C
Dewpoint 6.6° C

Last reported at 2020-Oct-25 07:45 UTC.
Time now 2020-Oct-26 01:08 UTC

Location: N 41°35' W 070°31'.
View on Google Maps.

See reports from other nearby stations

  
Tides and Currents Weather Stations Pressure Air Temp Water Temp Dewpoint Dewpoint Depression Visibility Wind Speed Wind Dir Waves Ship Positions
date/time (UTC)wind fromknots sea level pressurealtimeterstation pressurevisibilityair tempwater tempwave heightnotes
2020-Oct-25 07:45 310 3 10.8
2020-Oct-25 06:45 310 4 14.5
2020-Oct-25 05:45 312 5 16.6
2020-Oct-25 04:45 308 4 gusting 9 20.2
2020-Oct-25 03:45 316 4 gusting 13 13.9
2020-Oct-25 02:45 314 5 gusting 13 14.7
2020-Oct-25 00:45 277 1 gusting 5 17.3
2020-Oct-24 23:45 273 1 gusting 4 17.3
2020-Oct-24 22:45 270 2 gusting 6 17.8
2020-Oct-24 21:45 262 2 gusting 7 17.7
2020-Oct-24 20:45 252 3 gusting 9 18.4
2020-Oct-24 19:45 218 2 gusting 6 18.0
2020-Oct-24 18:45 200 1 gusting 6 17.4
2020-Oct-24 17:45 206 2 gusting 8 17.1
2020-Oct-24 16:45 183 2 gusting 6 17.9
2020-Oct-24 15:45 166 2 gusting 7 18.2
2020-Oct-24 14:45 142 2 gusting 4 18.3
2020-Oct-24 13:45 124 1 gusting 4 17.6
2020-Oct-24 12:45 132 1 gusting 2 17.3
2020-Oct-24 11:45 278 1 gusting 3 15.4
2020-Oct-24 10:45 312 0 gusting 1 15.4
2020-Oct-24 09:45 291 0 gusting 2 15.3
2020-Oct-24 08:45 303 0 gusting 1 15.5
2020-Oct-24 07:45 314 1 gusting 2 15.6
2020-Oct-24 06:45 334 0 gusting 2 15.6
2020-Oct-24 05:45 305 0 gusting 1 16.0
2020-Oct-24 04:45 349 0 gusting 1 16.3
2020-Oct-24 03:45 064 1 gusting 6 16.3
2020-Oct-24 02:45 089 1 gusting 4 16.6
2020-Oct-24 01:45 072 1 gusting 4 17.7